Time;durP1;ratioP1;P1;durP2;ratioP2;P2;SDS_P1;SDS_P2;PMS_P1;PMS_P2;Temp;Humidity;BMP_temperature;BMP_pressure;BME280_temperature;BME280_humidity;BME280_pressure;Samples;Min_cycle;Max_cycle;Signal;HPM_P1;HPM_P2
2024/04/02 00:00:53;;;;;;;;;19.00;16.50;;;;;-143.90;100.00;73766.63;4902728;28;102669;-82
2024/04/02 00:03:19;;;;;;;;;18.50;17.50;;;;;-143.90;100.00;73774.91;4893573;28;102776;-83
2024/04/02 00:05:44;;;;;;;;;14.00;14.00;;;;;-143.90;100.00;73783.16;4909108;28;102436;-84
2024/04/02 00:08:10;;;;;;;;;21.50;19.25;;;;;-143.90;100.00;73791.44;4919216;28;104557;-85
2024/04/02 00:10:37;;;;;;;;;15.75;14.50;;;;;-143.90;100.00;73795.56;4906293;28;102540;-81
2024/04/02 00:13:04;;;;;;;;;17.50;15.50;;;;;-143.90;100.00;73801.78;4920661;28;102054;-78
2024/04/02 00:15:30;;;;;;;;;11.50;11.00;;;;;-143.90;100.00;73787.31;4898785;28;102473;-84
2024/04/02 00:17:58;;;;;;;;;11.25;10.75;;;;;-143.90;100.00;73774.91;4899338;28;104728;-83
2024/04/02 00:20:24;;;;;;;;;13.75;13.00;;;;;-143.90;100.00;73795.56;4904581;28;102329;-83
2024/04/02 00:22:50;;;;;;;;;21.00;17.75;;;;;-143.90;100.00;73812.09;4922451;28;102208;-88
2024/04/02 00:25:15;;;;;;;;;18.00;16.25;;;;;-143.90;100.00;73828.63;4892921;28;102087;-86
2024/04/02 00:27:41;;;;;;;;;20.50;18.50;;;;;-143.90;100.00;73814.16;4900692;28;107563;-85
2024/04/02 00:30:07;;;;;;;;;15.75;14.50;;;;;-143.90;100.00;73818.31;4901419;28;103467;-87
2024/04/02 00:32:32;;;;;;;;;14.00;13.75;;;;;-143.90;100.00;73822.44;4904522;28;102212;-84
2024/04/02 00:34:58;;;;;;;;;15.75;11.50;;;;;-143.90;100.00;73832.78;4900829;28;102467;-84
2024/04/02 00:37:24;;;;;;;;;12.50;12.50;;;;;-143.90;100.00;73851.38;4890258;28;102650;-87
2024/04/02 00:39:50;;;;;;;;;12.25;11.50;;;;;-143.90;100.00;73863.78;4893281;28;102609;-85
2024/04/02 00:42:17;;;;;;;;;10.75;10.75;;;;;-143.90;100.00;73874.09;4896823;28;102426;-84
2024/04/02 00:44:42;;;;;;;;;15.50;11.75;;;;;-143.90;100.00;73886.50;4903923;28;103127;-85
2024/04/02 00:47:10;;;;;;;;;10.00;10.00;;;;;-143.90;100.00;73890.63;4885430;28;104890;-87
2024/04/02 00:49:36;;;;;;;;;11.00;9.75;;;;;-143.90;100.00;73886.50;4899284;28;101990;-87
2024/04/02 00:52:02;;;;;;;;;11.00;10.00;;;;;-143.90;100.00;73892.69;4902375;28;107033;-88
2024/04/02 00:54:29;;;;;;;;;8.00;8.00;;;;;-143.90;100.00;73884.44;4895454;28;102441;-87
2024/04/02 00:56:54;;;;;;;;;7.00;7.00;;;;;-143.90;100.00;73888.56;4891735;28;104516;-86
2024/04/02 00:59:21;;;;;;;;;7.25;6.75;;;;;-143.90;100.00;73911.31;4887024;28;102107;-87
2024/04/02 01:01:49;;;;;;;;;6.00;6.00;;;;;-143.90;100.00;73919.56;4901602;28;102038;-86
2024/04/02 01:04:15;;;;;;;;;8.00;8.00;;;;;-143.90;100.00;73917.50;4906950;28;102298;-89
2024/04/02 01:06:41;;;;;;;;;5.00;5.00;;;;;-143.90;100.00;73915.44;4902387;28;104442;-87
2024/04/02 01:09:06;;;;;;;;;11.50;11.50;;;;;-143.90;100.00;73931.97;4892468;28;102302;-83
2024/04/02 01:11:34;;;;;;;;;12.00;11.00;;;;;-143.90;100.00;73923.72;4895348;28;101983;-79
2024/04/02 01:14:00;;;;;;;;;16.50;16.00;;;;;-143.90;100.00;73925.78;4883214;28;102241;-83
2024/04/02 01:16:26;;;;;;;;;17.00;16.50;;;;;-143.90;100.00;73938.19;4889700;28;105058;-83
2024/04/02 01:18:51;;;;;;;;;18.75;15.50;;;;;-143.90;100.00;73936.09;4898172;28;102848;-86
2024/04/02 01:21:19;;;;;;;;;13.00;13.00;;;;;-143.90;100.00;73940.25;4886465;28;102809;-82
2024/04/02 01:23:45;;;;;;;;;17.75;16.50;;;;;-143.90;100.00;73952.63;4897251;28;102147;-82
2024/04/02 01:26:11;;;;;;;;;17.00;15.25;;;;;-143.90;100.00;73944.38;4892721;28;103307;-83
2024/04/02 01:28:37;;;;;;;;;19.25;17.50;;;;;-143.90;100.00;73958.84;4895655;28;102342;-83
2024/04/02 01:31:03;;;;;;;;;21.25;19.00;;;;;-143.90;100.00;73965.03;4902197;28;103079;-82
2024/04/02 01:33:29;;;;;;;;;19.00;18.00;;;;;-143.90;100.00;73983.66;4898398;28;103212;-79
2024/04/02 01:35:55;;;;;;;;;14.25;14.25;;;;;-143.90;100.00;73983.66;4904205;28;102672;-80
2024/04/02 01:38:20;;;;;;;;;20.25;17.50;;;;;-143.90;100.00;73996.03;4905330;28;103544;-82
2024/04/02 01:40:46;;;;;;;;;17.25;14.75;;;;;-143.90;100.00;73996.03;4906558;28;102080;-77
2024/04/02 01:43:12;;;;;;;;;19.00;18.00;;;;;-143.90;100.00;73993.97;4895351;28;102444;-83
2024/04/02 01:45:40;;;;;;;;;23.25;18.50;;;;;-143.90;100.00;74014.66;4899121;28;106075;-88
2024/04/02 01:48:06;;;;;;;;;18.75;15.25;;;;;-143.90;100.00;74016.72;4916031;28;102183;-79
2024/04/02 01:50:32;;;;;;;;;17.00;16.00;;;;;-143.90;100.00;74031.19;4905505;28;103623;-83
2024/04/02 01:52:58;;;;;;;;;13.00;12.00;;;;;-143.90;100.00;74027.03;4909657;28;102309;-81
2024/04/02 01:55:25;;;;;;;;;12.75;10.00;;;;;-143.90;100.00;74022.91;4892135;28;104873;-83
2024/04/02 01:57:50;;;;;;;;;8.75;8.00;;;;;-143.90;100.00;74010.50;4903679;28;102549;-83
2024/04/02 02:00:18;;;;;;;;;6.00;6.00;;;;;-143.90;100.00;74018.78;4905816;28;102887;-84
2024/04/02 02:02:44;;;;;;;;;9.00;8.75;;;;;-143.90;100.00;74012.56;4906543;28;102601;-80
2024/04/02 02:05:09;;;;;;;;;3.75;3.75;;;;;-143.90;100.00;74037.38;4898096;28;102884;-76
2024/04/02 02:07:35;;;;;;;;;4.00;4.00;;;;;-143.90;100.00;74035.31;4903312;28;102799;-82
2024/04/02 02:10:01;;;;;;;;;3.00;2.25;;;;;-143.90;100.00;74035.31;4902341;28;102661;-82
2024/04/02 02:12:26;;;;;;;;;4.00;3.00;;;;;-143.90;100.00;74043.59;4920249;28;102419;-83
2024/04/02 02:14:52;;;;;;;;;3.50;3.50;;;;;-143.90;100.00;74045.66;4903361;28;104475;-82
2024/04/02 02:17:18;;;;;;;;;2.75;2.75;;;;;-143.90;100.00;74062.19;4894968;28;103259;-79
2024/04/02 02:19:44;;;;;;;;;4.00;3.00;;;;;-143.90;100.00;74070.44;4910644;28;102196;-83
2024/04/02 02:22:10;;;;;;;;;4.00;3.00;;;;;-143.90;100.00;74068.38;4908674;28;102596;-84
2024/04/02 02:24:35;;;;;;;;;3.00;3.00;;;;;-143.90;100.00;74064.25;4906883;28;104959;-80
2024/04/02 02:27:01;;;;;;;;;2.00;2.00;;;;;-143.90;100.00;74060.13;4919666;28;102300;-84
2024/04/02 02:29:26;;;;;;;;;4.00;3.00;;;;;-143.90;100.00;74074.59;4895674;28;102838;-83
2024/04/02 02:31:52;;;;;;;;;7.75;4.00;;;;;-143.90;100.00;74078.72;4912092;28;102673;-79
2024/04/02 02:34:18;;;;;;;;;4.00;3.00;;;;;-143.90;100.00;74089.06;4907332;28;104797;-74
2024/04/02 02:36:44;;;;;;;;;5.50;5.50;;;;;-143.90;100.00;74093.19;4905414;28;102041;-86
2024/04/02 02:39:13;;;;;;;;;5.25;4.50;;;;;-143.90;100.00;74089.06;4901267;28;102472;-85
2024/04/02 02:41:39;;;;;;;;;6.50;5.50;;;;;-143.90;100.00;74107.66;4915374;28;102310;-81
2024/04/02 02:44:05;;;;;;;;;5.75;5.00;;;;;-143.90;100.00;74107.66;4905333;28;104930;-83
2024/04/02 02:46:31;;;;;;;;;3.00;3.00;;;;;-143.90;100.00;74107.66;4900811;28;102380;-85
2024/04/02 02:48:59;;;;;;;;;2.50;2.50;;;;;-143.90;100.00;74089.06;4906796;28;102543;-86
2024/04/02 02:51:25;;;;;;;;;2.75;2.75;;;;;-143.90;100.00;74101.44;4893271;28;102711;-85
2024/04/02 02:53:51;;;;;;;;;3.00;2.50;;;;;-143.90;100.00;74099.38;4907064;28;104934;-87
2024/04/02 02:56:16;;;;;;;;;2.00;2.00;;;;;-143.90;100.00;74107.66;4917502;28;102665;-86
2024/04/02 02:58:42;;;;;;;;;2.75;2.75;;;;;-143.90;100.00;74105.59;4906383;28;102605;-85
2024/04/02 03:01:09;;;;;;;;;3.50;3.50;;;;;-143.90;100.00;74105.59;4901189;28;102498;-84
2024/04/02 03:03:35;;;;;;;;;5.75;5.75;;;;;-143.90;100.00;74120.06;4901631;28;104737;-88
2024/04/02 03:06:00;;;;;;;;;8.50;6.00;;;;;-143.90;100.00;74120.06;4905016;28;102549;-83
2024/04/02 03:08:26;;;;;;;;;9.00;8.00;;;;;-143.90;100.00;74120.06;4905283;28;102043;-84
2024/04/02 03:11:05;;;;;;;;;7.75;6.25;;;;;-143.90;100.00;74113.84;4906040;28;104525;-82
2024/04/02 03:13:33;;;;;;;;;6.50;6.25;;;;;-143.90;100.00;74132.44;4896255;28;103412;-86
2024/04/02 03:15:59;;;;;;;;;8.00;8.00;;;;;-143.90;100.00;74140.72;4904682;28;102421;-85
2024/04/02 03:18:25;;;;;;;;;8.00;6.25;;;;;-143.90;100.00;74146.91;4901722;28;102037;-87
2024/04/02 03:20:50;;;;;;;;;5.00;5.00;;;;;-143.90;100.00;74171.72;4905657;28;102356;-87
2024/04/02 03:23:16;;;;;;;;;7.00;6.50;;;;;-143.90;100.00;74173.78;4898006;28;104554;-83
2024/04/02 03:25:50;;;;;;;;;4.00;4.00;;;;;-143.90;100.00;74175.84;4906086;28;104952;-84
2024/04/02 03:28:16;;;;;;;;;5.25;3.00;;;;;-143.90;100.00;74182.06;4902460;28;102544;-82
2024/04/02 03:30:41;;;;;;;;;2.50;2.50;;;;;-143.90;100.00;74188.25;4906718;28;103275;-85
2024/04/02 03:33:07;;;;;;;;;3.25;3.25;;;;;-143.90;100.00;74192.41;4896116;28;104532;-87
2024/04/02 03:35:36;;;;;;;;;3.25;2.50;;;;;-143.90;100.00;74196.53;4895294;28;102266;-87
2024/04/02 03:38:03;;;;;;;;;3.00;3.00;;;;;-143.90;100.00;74196.53;4901848;28;102016;-87
2024/04/02 03:40:29;;;;;;;;;2.00;2.00;;;;;-143.90;100.00;74194.47;4901082;28;102791;-84
2024/04/02 03:42:54;;;;;;;;;2.00;2.00;;;;;-143.90;100.00;74194.47;4900706;28;104574;-87
2024/04/02 03:45:21;;;;;;;;;3.00;2.00;;;;;-143.90;100.00;74182.06;4846741;28;1280216;-88
2024/04/02 03:47:46;;;;;;;;;2.00;1.75;;;;;-143.90;100.00;74192.41;4904061;28;102072;-85
2024/04/02 03:50:12;;;;;;;;;1.00;1.00;;;;;-143.90;100.00;74180.00;4898081;28;102558;-86
2024/04/02 03:52:37;;;;;;;;;2.00;2.00;;;;;-143.90;100.00;74175.84;4883048;28;104916;-84
2024/04/02 03:55:03;;;;;;;;;1.00;1.00;;;;;-143.90;100.00;74163.47;4902932;28;102624;-84
2024/04/02 03:57:29;;;;;;;;;2.50;1.50;;;;;-143.90;100.00;74171.72;4891735;28;103525;-85
2024/04/02 03:59:54;;;;;;;;;1.50;1.50;;;;;-143.90;100.00;74165.53;4896382;28;102072;-83
2024/04/02 04:02:20;;;;;;;;;2.00;2.00;;;;;-143.90;100.00;74188.25;4903210;28;104633;-83
2024/04/02 04:04:45;;;;;;;;;2.25;2.00;;;;;-143.90;100.00;74184.13;4905956;28;102054;-84
2024/04/02 04:07:11;;;;;;;;;3.50;3.00;;;;;-143.90;100.00;74192.41;4892718;28;102431;-85
2024/04/02 04:09:38;;;;;;;;;4.75;4.25;;;;;-143.90;100.00;74188.25;4894492;28;103078;-82
2024/04/02 04:12:03;;;;;;;;;4.50;4.00;;;;;-143.90;100.00;74175.84;4912839;28;104591;-84
2024/04/02 04:14:29;;;;;;;;;8.00;8.00;;;;;-143.90;100.00;74190.31;4900542;28;103500;-85
2024/04/02 04:16:54;;;;;;;;;6.50;6.50;;;;;-143.90;100.00;74188.25;4895544;28;102428;-85
2024/04/02 04:19:20;;;;;;;;;6.75;6.75;;;;;-143.90;100.00;74200.66;4888671;28;102397;-83
2024/04/02 04:21:46;;;;;;;;;8.00;7.25;;;;;-143.90;100.00;74219.25;4901720;28;104682;-85
2024/04/02 04:24:11;;;;;;;;;6.50;5.00;;;;;-143.90;100.00;74221.31;4898472;28;102251;-86
2024/04/02 04:26:37;;;;;;;;;3.00;3.00;;;;;-143.90;100.00;74217.19;4903134;28;103761;-82
2024/04/02 04:29:03;;;;;;;;;7.00;4.25;;;;;-143.90;100.00;74225.47;4898394;28;102449;-82
2024/04/02 04:31:28;;;;;;;;;8.25;7.00;;;;;-143.90;100.00;74229.59;4889372;28;104378;-80
2024/04/02 04:33:54;;;;;;;;;3.75;3.75;;;;;-143.90;100.00;74233.72;4900941;28;102450;-81
2024/04/02 04:36:19;;;;;;;;;4.00;3.25;;;;;-143.90;100.00;74242.00;4898117;28;102184;-82
2024/04/02 04:38:45;;;;;;;;;9.50;9.00;;;;;-143.90;100.00;74250.25;4905967;28;102466;-78
2024/04/02 04:41:10;;;;;;;;;10.25;9.25;;;;;-143.90;100.00;74262.66;4892834;28;103794;-77
2024/04/02 04:43:36;;;;;;;;;16.75;15.00;;;;;-143.90;100.00;74270.94;4896754;28;102545;-81
2024/04/02 04:46:03;;;;;;;;;10.75;9.00;;;;;-143.90;100.00;74279.22;4899116;28;102092;-78
2024/04/02 04:48:30;;;;;;;;;19.50;18.25;;;;;-143.90;100.00;74277.13;4899820;28;103861;-76
2024/04/02 04:51:14;;;;;;;;;18.00;16.00;;;;;-143.90;100.00;74285.41;4900509;28;102916;-81
2024/04/02 04:53:40;;;;;;;;;20.75;20.00;;;;;-143.90;100.00;74297.81;4900989;28;102456;-79
2024/04/02 04:56:06;;;;;;;;;22.75;17.25;;;;;-143.90;100.00;74297.81;4897848;28;102558;-81
2024/04/02 04:58:35;;;;;;;;;18.00;17.00;;;;;-143.90;100.00;74301.94;4902979;28;105057;-79
2024/04/02 05:01:03;;;;;;;;;19.50;17.50;;;;;-143.90;100.00;74295.75;4901545;28;104519;-73
2024/04/02 05:03:29;;;;;;;;;17.75;17.00;;;;;-143.90;100.00;74293.66;4886439;28;102289;-80
2024/04/02 05:06:02;;;;;;;;;19.50;19.50;;;;;-143.90;100.00;74293.66;4899537;28;101972;-79
2024/04/02 05:08:28;;;;;;;;;13.25;11.75;;;;;-143.90;100.00;74295.75;4905007;28;103918;-74
2024/04/02 05:10:54;;;;;;;;;23.75;20.25;;;;;-143.90;100.00;74304.00;4903490;28;104520;-77
2024/04/02 05:13:20;;;;;;;;;16.75;15.75;;;;;-143.90;100.00;74312.28;4895240;28;102422;-73
2024/04/02 05:15:46;;;;;;;;;21.25;18.50;;;;;-143.90;100.00;74312.28;4905528;28;102240;-77
2024/04/02 05:18:12;;;;;;;;;18.50;17.25;;;;;-143.90;100.00;74301.94;4903150;28;102009;-80
2024/04/02 05:20:38;;;;;;;;;15.00;14.00;;;;;-143.90;100.00;74332.94;4904570;28;104984;-81
2024/04/02 05:23:05;;;;;;;;;18.75;15.25;;;;;-143.90;100.00;74330.88;4905515;28;102407;-79
2024/04/02 05:25:31;;;;;;;;;10.00;9.25;;;;;-143.90;100.00;74339.16;4897221;28;102037;-81
2024/04/02 05:27:56;;;;;;;;;19.75;16.50;;;;;-143.90;100.00;74343.28;4908890;28;102459;-81
2024/04/02 05:30:22;;;;;;;;;19.25;17.00;;;;;-143.90;100.00;74345.34;4904125;28;104429;-76
2024/04/02 05:32:47;;;;;;;;;19.00;17.75;;;;;-143.90;100.00;74341.22;4728354;28;5001001;-76
2024/04/02 05:35:13;;;;;;;;;22.00;21.25;;;;;-143.90;100.00;74345.34;4889997;28;103041;-68
2024/04/02 05:37:39;;;;;;;;;26.75;21.50;;;;;-143.90;100.00;74355.69;4904803;28;102609;-76
2024/04/02 05:40:05;;;;;;;;;24.00;18.25;;;;;-143.90;100.00;74361.88;4902503;28;102555;-79
2024/04/02 05:42:31;;;;;;;;;22.75;18.00;;;;;-143.90;100.00;74366.00;4904463;28;102345;-77
2024/04/02 05:44:57;;;;;;;;;26.00;19.25;;;;;-143.90;100.00;74372.22;4891310;28;102475;-75
2024/04/02 05:47:23;;;;;;;;;21.50;18.75;;;;;-143.90;100.00;74376.34;4895081;28;102131;-76
2024/04/02 05:49:49;;;;;;;;;19.50;17.25;;;;;-143.90;100.00;74390.81;4905663;28;104970;-77
2024/04/02 05:52:15;;;;;;;;;20.75;19.25;;;;;-143.90;100.00;74390.81;4905289;28;101937;-73
2024/04/02 05:54:40;;;;;;;;;20.75;18.25;;;;;-143.90;100.00;74386.69;4902820;28;102545;-82
2024/04/02 05:57:06;;;;;;;;;23.00;20.50;;;;;-143.90;100.00;74397.03;4901855;28;102592;-81
2024/04/02 05:59:32;;;;;;;;;26.50;20.75;;;;;-143.90;100.00;74399.09;4897346;28;104547;-77
2024/04/02 06:01:58;;;;;;;;;21.25;19.00;;;;;-143.90;100.00;74403.22;4907267;28;102376;-76
2024/04/02 06:04:23;;;;;;;;;19.50;19.00;;;;;-143.90;100.00;74403.22;4902735;28;102864;-80
2024/04/02 06:06:49;;;;;;;;;18.50;17.00;;;;;-143.90;100.00;74390.81;4905427;28;102585;-79
2024/04/02 06:09:14;;;;;;;;;18.75;18.50;;;;;-143.90;100.00;74394.94;4895916;28;109029;-81
2024/04/02 06:11:40;;;;;;;;;22.25;20.50;;;;;-143.90;100.00;74399.09;4908374;28;102229;-82
2024/04/02 06:14:06;;;;;;;;;22.00;17.25;;;;;-143.90;100.00;74397.03;4904635;28;102118;-80
2024/04/02 06:16:31;;;;;;;;;15.00;12.75;;;;;-143.90;100.00;74405.28;4906426;28;102574;-81
2024/04/02 06:18:58;;;;;;;;;25.00;21.50;;;;;-143.90;100.00;74407.34;4905608;28;104836;-79
2024/04/02 06:21:24;;;;;;;;;25.25;21.50;;;;;-143.90;100.00;74417.69;4891568;28;102271;-79
2024/04/02 06:23:50;;;;;;;;;24.25;21.50;;;;;-143.90;100.00;74403.22;4919145;28;102006;-80
2024/04/02 06:26:16;;;;;;;;;24.50;21.25;;;;;-143.90;100.00;74413.56;4903189;28;102047;-82
2024/04/02 06:28:43;;;;;;;;;22.50;20.50;;;;;-143.90;100.00;74417.69;4904099;28;103977;-79
2024/04/02 06:31:09;;;;;;;;;26.75;23.25;;;;;-143.90;100.00;74419.75;4897289;28;102395;-81
2024/04/02 06:33:34;;;;;;;;;11.00;10.75;;;;;-143.90;100.00;74417.69;4898833;28;103612;-81
2024/04/02 06:36:00;;;;;;;;;20.75;20.00;;;;;-143.90;100.00;74428.03;4906276;28;102319;-76
2024/04/02 06:38:26;;;;;;;;;22.25;20.00;;;;;-143.90;100.00;74428.03;4899317;28;104520;-77
2024/04/02 06:40:51;;;;;;;;;20.50;18.50;;;;;-143.90;100.00;74430.09;4903066;28;102252;-76
2024/04/02 06:43:17;;;;;;;;;19.25;14.75;;;;;-143.90;100.00;74448.69;4906746;28;102237;-75
2024/04/02 06:46:00;;;;;;;;;24.50;22.00;;;;;-143.90;100.00;74454.91;4902063;28;102191;-80
2024/04/02 06:48:26;;;;;;;;;27.75;23.50;;;;;-143.90;100.00;74459.03;4911834;28;108885;-77
2024/04/02 06:51:10;;;;;;;;;29.75;25.75;;;;;-143.90;100.00;74467.31;4902364;28;102134;-79
2024/04/02 06:53:36;;;;;;;;;33.00;29.50;;;;;-143.90;100.00;74483.84;4898286;28;102064;-80
2024/04/02 06:56:03;;;;;;;;;27.25;23.25;;;;;-143.90;100.00;74490.03;4900811;28;102285;-79
2024/04/02 06:58:29;;;;;;;;;26.50;24.00;;;;;-143.90;100.00;74502.44;4890567;28;104566;-81
2024/04/02 07:00:55;;;;;;;;;28.00;24.50;;;;;-143.90;100.00;74504.50;4898169;28;102629;-76
2024/04/02 07:03:22;;;;;;;;;21.50;21.25;;;;;-143.90;100.00;74527.25;4892241;28;102629;-76
2024/04/02 07:05:52;;;;;;;;;21.50;21.00;;;;;-143.90;100.00;74527.25;4905689;28;102132;-77
2024/04/02 07:08:21;;;;;;;;;18.00;16.75;;;;;-143.90;100.00;74514.84;4919674;28;109000;-80
2024/04/02 07:10:58;;;;;;;;;19.50;17.25;;;;;-143.90;100.00;74545.84;4900095;28;102400;-77
2024/04/02 07:13:25;;;;;;;;;16.75;14.75;;;;;-143.90;100.00;74537.56;4889253;28;102602;-74
2024/04/02 07:15:51;;;;;;;;;15.75;14.75;;;;;-143.90;100.00;74560.31;4906549;28;102021;-83
2024/04/02 07:18:17;;;;;;;;;9.75;9.75;;;;;-143.90;100.00;74566.53;4906974;28;104580;-82
2024/04/02 07:20:42;;;;;;;;;13.25;13.25;;;;;-143.90;100.00;74572.72;4899831;28;105255;-77
2024/04/02 07:23:08;;;;;;;;;11.25;10.25;;;;;-143.90;100.00;74576.84;4895273;28;102430;-81
2024/04/02 07:25:33;;;;;;;;;14.00;11.00;;;;;-143.90;100.00;74574.78;4903031;28;102361;-79
2024/04/02 07:27:59;;;;;;;;;11.50;10.00;;;;;-143.90;100.00;74572.72;4906510;28;104449;-79
2024/04/02 07:30:24;;;;;;;;;14.00;13.00;;;;;-143.90;100.00;74570.66;4901484;28;103664;-79
2024/04/02 07:32:53;;;;;;;;;11.50;11.00;;;;;-143.90;100.00;74578.91;4904946;28;104271;-68
2024/04/02 07:35:19;;;;;;;;;15.25;14.25;;;;;-143.90;100.00;74568.59;4895726;28;102485;-78
2024/04/02 07:37:44;;;;;;;;;16.75;13.25;;;;;-143.90;100.00;74562.38;4901731;28;104402;-75
2024/04/02 07:40:10;;;;;;;;;15.00;14.50;;;;;-143.90;100.00;74566.53;4901680;28;102160;-80
2024/04/02 07:42:35;;;;;;;;;18.75;15.00;;;;;-143.90;100.00;74560.31;4901252;28;103906;-83
2024/04/02 07:45:01;;;;;;;;;16.00;14.25;;;;;-143.90;100.00;74564.44;4901360;28;102086;-80
2024/04/02 07:47:26;;;;;;;;;13.25;12.75;;;;;-143.90;100.00;74566.53;4890062;28;104600;-80
2024/04/02 07:49:52;;;;;;;;;14.00;14.00;;;;;-143.90;100.00;74570.66;4904601;28;102352;-79
2024/04/02 07:52:18;;;;;;;;;20.50;17.50;;;;;-143.90;100.00;74564.44;4901351;28;102689;-75
2024/04/02 07:54:43;;;;;;;;;21.25;20.00;;;;;-143.90;100.00;74574.78;4905645;28;102756;-82
2024/04/02 07:57:09;;;;;;;;;22.75;21.00;;;;;-143.90;100.00;74581.00;4893933;28;104440;-74
2024/04/02 07:59:35;;;;;;;;;19.25;16.25;;;;;-143.90;100.00;74576.84;4894729;28;102075;-77
2024/04/02 08:02:00;;;;;;;;;21.75;19.00;;;;;-143.90;100.00;74587.19;4901679;28;102526;-79
2024/04/02 08:04:26;;;;;;;;;21.50;19.25;;;;;-143.90;100.00;74578.91;4899883;28;102620;-78
2024/04/02 08:06:52;;;;;;;;;21.00;19.50;;;;;-143.90;100.00;74587.19;4901187;28;104479;-79
2024/04/02 08:09:18;;;;;;;;;21.00;17.50;;;;;-143.90;100.00;74581.00;4891873;28;102482;-81
2024/04/02 08:11:43;;;;;;;;;21.25;19.75;;;;;-143.90;100.00;74568.59;4913586;28;102206;-81
2024/04/02 08:14:10;;;;;;;;;20.00;16.75;;;;;-143.90;100.00;74576.84;4894604;28;102505;-81
2024/04/02 08:16:36;;;;;;;;;16.00;16.00;;;;;-143.90;100.00;74564.44;4888892;28;104685;-81
2024/04/02 08:19:01;;;;;;;;;21.50;17.00;;;;;-143.90;100.00;74566.53;4895774;28;104144;-83
2024/04/02 08:21:27;;;;;;;;;21.25;16.00;;;;;-143.90;100.00;74564.44;4892739;28;105430;-80
2024/04/02 08:23:52;;;;;;;;;16.25;16.00;;;;;-143.90;100.00;74568.59;4901376;28;105548;-79
2024/04/02 08:26:22;;;;;;;;;15.75;15.00;;;;;-143.90;100.00;74570.66;4899663;28;104512;-83
2024/04/02 08:28:48;;;;;;;;;17.75;12.25;;;;;-143.90;100.00;74562.38;4903778;28;102325;-81
2024/04/02 08:31:13;;;;;;;;;18.00;14.00;;;;;-143.90;100.00;74570.66;4891052;28;102271;-80
2024/04/02 08:33:39;;;;;;;;;17.50;14.00;;;;;-143.90;100.00;74572.72;4898191;28;103173;-80
2024/04/02 08:36:05;;;;;;;;;10.00;9.00;;;;;-143.90;100.00;74560.31;4901264;28;104638;-82
2024/04/02 08:38:30;;;;;;;;;11.25;10.00;;;;;-143.90;100.00;74527.25;4899743;28;105777;-80
2024/04/02 08:41:01;;;;;;;;;11.75;10.25;;;;;-143.90;100.00;74535.50;4903572;28;102415;-75
2024/04/02 08:43:29;;;;;;;;;14.75;11.25;;;;;-143.90;100.00;74521.03;4907290;28;102668;-78
2024/04/02 08:45:57;;;;;;;;;10.25;9.50;;;;;-143.90;100.00;74549.97;4899295;28;104596;-79
2024/04/02 08:48:24;;;;;;;;;9.00;8.50;;;;;-143.90;100.00;74539.66;4895944;28;102435;-77
2024/04/02 08:50:52;;;;;;;;;9.75;8.25;;;;;-143.90;100.00;74558.25;4904759;28;104274;-80
2024/04/02 08:53:17;;;;;;;;;12.00;10.50;;;;;-143.90;100.00;74566.53;4890221;28;102767;-79
2024/04/02 08:55:45;;;;;;;;;9.50;8.75;;;;;-143.90;100.00;74558.25;4896672;28;104544;-78
2024/04/02 08:58:11;;;;;;;;;7.50;7.25;;;;;-143.90;100.00;74549.97;4897406;28;103894;-78
2024/04/02 09:00:37;;;;;;;;;9.00;9.00;;;;;-143.90;100.00;74552.03;4903858;28;102590;-78
2024/04/02 09:03:03;;;;;;;;;10.00;9.75;;;;;-143.90;100.00;74556.19;4900849;28;102016;-78
2024/04/02 09:05:32;;;;;;;;;18.25;12.00;;;;;-143.90;100.00;74558.25;4889240;28;104602;-78
2024/04/02 09:07:57;;;;;;;;;12.50;10.75;;;;;-143.90;100.00;74547.91;4899883;28;102845;-77
2024/04/02 09:10:23;;;;;;;;;9.00;8.50;;;;;-143.90;100.00;74568.59;4899228;28;102506;-76
2024/04/02 09:12:48;;;;;;;;;7.50;7.50;;;;;-143.90;100.00;74556.19;4904666;28;102152;-73
2024/04/02 09:15:15;;;;;;;;;10.50;8.00;;;;;-143.90;100.00;74552.03;4888130;28;104931;-78
2024/04/02 09:17:41;;;;;;;;;10.25;9.00;;;;;-143.90;100.00;74552.03;4898131;28;102015;-82
2024/04/02 09:20:07;;;;;;;;;9.50;9.50;;;;;-143.90;100.00;74537.56;4896290;28;102058;-80
2024/04/02 09:22:33;;;;;;;;;8.75;8.00;;;;;-143.90;100.00;74525.19;4900592;28;102479;-80
2024/04/02 09:24:58;;;;;;;;;9.25;8.25;;;;;-143.90;100.00;74525.19;4896530;28;104311;-81
2024/04/02 09:27:24;;;;;;;;;7.75;7.75;;;;;-143.90;100.00;74527.25;4886722;28;103669;-77
2024/04/02 09:29:54;;;;;;;;;10.00;9.25;;;;;-143.90;100.00;74529.31;4902276;28;105580;-76
2024/04/02 09:32:22;;;;;;;;;9.75;9.00;;;;;-143.90;100.00;74523.09;4895116;28;102103;-77
2024/04/02 09:34:52;;;;;;;;;10.25;9.75;;;;;-143.90;100.00;74512.78;4918908;28;109149;-77
2024/04/02 09:37:35;;;;;;;;;10.75;10.00;;;;;-143.90;100.00;74508.63;4886577;28;102503;-73
2024/04/02 09:40:04;;;;;;;;;9.25;9.00;;;;;-143.90;100.00;74477.63;4913854;28;102153;-78
2024/04/02 09:42:31;;;;;;;;;10.25;9.25;;;;;-143.90;100.00;74459.03;4903063;28;102389;-78
2024/04/02 09:45:00;;;;;;;;;14.50;12.00;;;;;-143.90;100.00;74477.63;4897159;28;104619;-81
2024/04/02 09:47:29;;;;;;;;;11.75;10.00;;;;;-143.90;100.00;74477.63;4889412;28;105738;-81
2024/04/02 09:49:56;;;;;;;;;14.25;11.00;;;;;-143.90;100.00;74465.22;4901538;28;103017;-79
2024/04/02 09:52:25;;;;;;;;;11.50;10.75;;;;;-143.90;100.00;74465.22;4900236;28;102116;-79
2024/04/02 09:54:51;;;;;;;;;13.00;11.75;;;;;-143.90;100.00;74477.63;4903948;28;104585;-78
2024/04/02 09:57:21;;;;;;;;;7.00;7.00;;;;;-143.90;100.00;74469.38;4892642;28;102350;-71
2024/04/02 09:59:47;;;;;;;;;10.25;9.25;;;;;-143.90;100.00;74467.31;4904427;28;102059;-79
2024/04/02 10:02:20;;;;;;;;;12.25;10.00;;;;;-143.90;100.00;74479.69;4904071;28;102498;-80
2024/04/02 10:04:52;;;;;;;;;11.00;10.00;;;;;-143.90;100.00;74490.03;4901038;28;104670;-79
2024/04/02 10:07:29;;;;;;;;;12.00;11.00;;;;;-143.90;100.00;74465.22;4894815;28;103509;-78
2024/04/02 10:10:05;;;;;;;;;9.50;9.50;;;;;-143.90;100.00;74469.38;4902940;28;103393;-78
2024/04/02 10:12:32;;;;;;;;;10.00;8.00;;;;;-143.90;100.00;74490.03;4899159;28;102149;-77
2024/04/02 10:15:05;;;;;;;;;10.75;8.75;;;;;-143.90;100.00;74494.16;4900215;28;104562;-77
2024/04/02 10:17:34;;;;;;;;;7.50;5.50;;;;;-143.90;100.00;74485.91;4893317;28;102004;-75
2024/04/02 10:20:00;;;;;;;;;10.00;9.00;;;;;-143.90;100.00;74527.25;4904633;28;102269;-75
2024/04/02 10:22:36;;;;;;;;;10.00;10.00;;;;;-143.90;100.00;74518.97;4908444;28;102572;-78
2024/04/02 10:25:12;;;;;;;;;11.00;9.25;;;;;-143.90;100.00;74537.56;4892879;28;109500;-80
2024/04/02 10:27:47;;;;;;;;;10.50;10.25;;;;;-143.90;100.00;74547.91;4895514;28;102547;-76
2024/04/02 10:30:18;;;;;;;;;8.00;8.00;;;;;-143.90;100.00;74552.03;4899383;28;102710;-79
2024/04/02 10:32:44;;;;;;;;;9.50;8.50;;;;;-143.90;100.00;74545.84;4903159;28;102083;-77
2024/04/02 10:35:23;;;;;;;;;16.00;11.75;;;;;-143.90;100.00;74552.03;4898357;28;104571;-80
2024/04/02 10:37:55;;;;;;;;;10.75;8.75;;;;;-143.90;100.00;74545.84;4899749;28;102063;-75
2024/04/02 10:40:21;;;;;;;;;11.50;9.00;;;;;-143.90;100.00;74543.78;4911438;28;102501;-78
2024/04/02 10:42:48;;;;;;;;;13.00;11.00;;;;;-143.90;100.00;74549.97;4903833;28;104703;-79
2024/04/02 10:45:17;;;;;;;;;9.50;9.50;;;;;-143.90;100.00;74531.38;4896025;28;104562;-77
2024/04/02 10:47:51;;;;;;;;;11.75;10.00;;;;;-143.90;100.00;74535.50;4902632;28;102900;-76
2024/04/02 10:50:23;;;;;;;;;11.50;11.00;;;;;-143.90;100.00;74549.97;4914808;28;102329;-78